createdAt,value
2022-10-18T00:00:46.211Z,1.77
2022-10-18T00:03:12.535Z,2.03
2022-10-18T00:05:39.214Z,1.52
2022-10-18T00:08:05.652Z,1.77
2022-10-18T00:10:31.990Z,1.38
2022-10-18T00:12:58.762Z,1.60
2022-10-18T00:15:25.070Z,1.48
2022-10-18T00:17:51.487Z,1.50
2022-10-18T00:20:18.454Z,1.65
2022-10-18T00:22:44.782Z,1.70
2022-10-18T00:25:11.086Z,1.55
2022-10-18T00:27:38.015Z,1.48
2022-10-18T00:30:05.538Z,2.00
2022-10-18T00:32:36.497Z,1.50
2022-10-18T00:35:04.490Z,1.50
2022-10-18T00:37:31.159Z,1.67
2022-10-18T00:39:57.932Z,1.50
2022-10-18T00:42:30.642Z,1.55
2022-10-18T00:45:02.273Z,1.38
2022-10-18T00:47:29.369Z,1.52
2022-10-18T00:49:58.801Z,1.70
2022-10-18T00:52:35.560Z,1.50
2022-10-18T00:55:03.527Z,1.60
2022-10-18T00:57:30.140Z,1.42
2022-10-18T00:59:56.732Z,1.67
2022-10-18T01:02:25.080Z,1.70
2022-10-18T01:04:51.696Z,1.40
2022-10-18T01:07:40.205Z,1.70
2022-10-18T01:10:14.983Z,1.45
2022-10-18T01:15:12.920Z,1.20
2022-10-18T01:18:06.725Z,1.60
2022-10-18T01:20:43.779Z,1.52
2022-10-18T01:23:30.748Z,1.20
2022-10-18T01:26:09.029Z,1.77
2022-10-18T01:28:54.431Z,1.77
2022-10-18T01:31:25.794Z,1.40
2022-10-18T01:33:59.955Z,1.77
2022-10-18T01:36:32.830Z,1.50
2022-10-18T01:39:03.451Z,1.35
2022-10-18T01:41:30.295Z,1.30
2022-10-18T01:44:00.969Z,1.50
2022-10-18T01:46:29.683Z,1.70
2022-10-18T01:48:57.532Z,1.80
2022-10-18T01:51:29.015Z,1.60
2022-10-18T01:53:56.696Z,1.70
2022-10-18T01:56:42.508Z,1.58
2022-10-18T01:59:28.104Z,1.48
2022-10-18T02:02:10.144Z,1.60
2022-10-18T02:04:51.651Z,1.58
2022-10-18T02:07:36.327Z,1.58
2022-10-18T02:12:49.631Z,1.58
2022-10-18T02:15:22.450Z,1.33
2022-10-18T02:17:48.841Z,1.55
2022-10-18T02:20:20.812Z,1.70
2022-10-18T02:22:50.586Z,1.73
2022-10-18T02:25:22.791Z,1.67
2022-10-18T02:27:49.515Z,2.00
2022-10-18T02:30:16.776Z,1.95
2022-10-18T02:33:02.584Z,2.20
2022-10-18T02:35:44.547Z,1.85
2022-10-18T02:38:14.532Z,2.03
2022-10-18T02:40:41.239Z,2.20
2022-10-18T02:43:07.916Z,2.28
2022-10-18T02:45:34.304Z,2.10
2022-10-18T02:48:00.818Z,2.35
2022-10-18T02:50:27.687Z,2.30
2022-10-18T02:52:54.605Z,2.20
2022-10-18T02:55:20.961Z,1.98
2022-10-18T02:57:47.777Z,2.15
2022-10-18T03:00:14.668Z,2.22
2022-10-18T03:02:40.993Z,2.40
2022-10-18T03:05:08.251Z,1.80
2022-10-18T03:07:34.852Z,2.13
2022-10-18T03:10:01.374Z,1.85
2022-10-18T03:12:28.106Z,2.38
2022-10-18T03:14:54.420Z,2.30
2022-10-18T03:17:20.987Z,2.20
2022-10-18T03:19:47.312Z,2.30
2022-10-18T03:22:13.651Z,2.25
2022-10-18T03:24:39.978Z,2.53
2022-10-18T03:27:06.367Z,3.25
2022-10-18T03:29:32.741Z,3.03
2022-10-18T03:31:59.396Z,2.70
2022-10-18T03:34:25.720Z,2.42
2022-10-18T03:36:52.499Z,2.63
2022-10-18T03:39:18.863Z,2.75
2022-10-18T03:41:45.250Z,2.20
2022-10-18T03:44:11.966Z,2.75
2022-10-18T03:46:38.275Z,4.15
2022-10-18T03:49:04.650Z,3.83
2022-10-18T03:51:31.507Z,3.40
2022-10-18T03:53:57.816Z,3.90
2022-10-18T03:56:24.157Z,2.25
2022-10-18T03:58:50.972Z,3.30
2022-10-18T04:01:17.341Z,3.45
2022-10-18T04:03:43.727Z,3.25
2022-10-18T04:06:10.607Z,3.38
2022-10-18T04:08:36.964Z,3.67
2022-10-18T04:11:12.412Z,3.55
2022-10-18T04:13:38.924Z,3.67
2022-10-18T04:16:05.370Z,3.40
2022-10-18T04:18:32.106Z,4.00
2022-10-18T04:20:58.795Z,4.10
2022-10-18T04:23:25.127Z,5.10
2022-10-18T04:25:51.997Z,6.63
2022-10-18T04:28:18.640Z,7.85
2022-10-18T04:30:50.124Z,9.13
2022-10-18T04:33:16.983Z,10.43
2022-10-18T04:35:43.304Z,10.18
2022-10-18T04:38:10.070Z,9.73
2022-10-18T04:40:37.959Z,11.77
2022-10-18T04:43:04.260Z,10.27
2022-10-18T04:45:30.699Z,10.52
2022-10-18T04:47:57.526Z,10.95
2022-10-18T04:50:23.871Z,11.05
2022-10-18T04:55:21.773Z,9.25
2022-10-18T04:57:48.183Z,9.82
2022-10-18T05:00:14.876Z,10.07
2022-10-18T05:02:41.717Z,7.70
2022-10-18T05:05:10.409Z,6.97
2022-10-18T05:07:39.666Z,5.75
2022-10-18T05:10:06.317Z,5.75
2022-10-18T05:12:32.916Z,7.78
2022-10-18T05:14:59.483Z,4.03
2022-10-18T05:17:26.324Z,4.40
2022-10-18T05:19:52.636Z,4.35
2022-10-18T05:22:18.970Z,4.45
2022-10-18T05:24:45.772Z,4.97
2022-10-18T05:27:12.155Z,4.97
2022-10-18T05:29:38.540Z,4.68
2022-10-18T05:32:05.388Z,4.93
2022-10-18T05:34:34.375Z,4.80
2022-10-18T05:37:00.836Z,4.68
2022-10-18T05:39:27.631Z,5.28
2022-10-18T05:41:54.003Z,5.43
2022-10-18T05:44:20.446Z,5.20
2022-10-18T05:46:47.017Z,4.88
2022-10-18T05:49:13.907Z,4.50
2022-10-18T05:51:40.327Z,4.63
2022-10-18T05:54:06.762Z,5.70
2022-10-18T05:56:33.180Z,7.65
2022-10-18T05:58:59.531Z,6.25
2022-10-18T06:01:26.303Z,5.68
2022-10-18T06:03:53.059Z,5.90
2022-10-18T06:06:19.377Z,6.22
2022-10-18T06:08:49.238Z,5.55
2022-10-18T06:11:19.032Z,6.20
2022-10-18T06:13:47.820Z,6.00
2022-10-18T06:16:17.037Z,5.93
2022-10-18T06:18:47.084Z,5.82
2022-10-18T06:21:13.398Z,5.85
2022-10-18T06:23:40.051Z,6.40
2022-10-18T06:26:09.646Z,7.45
2022-10-18T06:28:37.769Z,6.47
2022-10-18T06:31:05.257Z,5.72
2022-10-18T06:33:32.992Z,5.68
2022-10-18T06:36:05.517Z,5.75
2022-10-18T06:38:32.712Z,5.63
2022-10-18T06:40:59.562Z,4.88
2022-10-18T06:43:26.407Z,6.22
2022-10-18T06:45:54.800Z,5.57
2022-10-18T06:48:21.900Z,4.55
2022-10-18T06:50:57.642Z,5.85
2022-10-18T06:53:25.600Z,5.72
2022-10-18T06:55:52.207Z,5.32
2022-10-18T06:58:19.106Z,5.97
2022-10-18T07:00:46.826Z,5.40
2022-10-18T07:03:13.892Z,5.20
2022-10-18T07:05:40.331Z,5.55
2022-10-18T07:08:06.651Z,5.05
2022-10-18T07:10:33.571Z,5.68
2022-10-18T07:13:20.117Z,5.63
2022-10-18T07:15:46.644Z,5.50
2022-10-18T07:18:13.229Z,6.40
2022-10-18T07:20:39.701Z,6.75
2022-10-18T07:23:08.956Z,7.05
2022-10-18T07:25:35.828Z,7.90
2022-10-18T07:28:02.377Z,7.13
2022-10-18T07:30:29.354Z,11.20
2022-10-18T07:32:55.660Z,13.95
2022-10-18T07:35:21.968Z,14.57
2022-10-18T07:37:48.673Z,15.13
2022-10-18T07:40:15.135Z,13.27
2022-10-18T07:42:41.451Z,13.32
2022-10-18T07:45:08.579Z,12.20
2022-10-18T07:47:35.416Z,12.43
2022-10-18T07:50:02.257Z,13.95
2022-10-18T07:52:28.584Z,12.85
2022-10-18T07:54:54.906Z,10.57
2022-10-18T07:57:21.647Z,10.25
2022-10-18T07:59:48.511Z,7.70
2022-10-18T08:02:14.880Z,5.97
2022-10-18T08:04:41.534Z,5.85
2022-10-18T08:07:08.034Z,5.90
2022-10-18T08:09:34.348Z,5.20
2022-10-18T08:12:00.683Z,5.60
2022-10-18T08:14:27.407Z,5.13
2022-10-18T08:16:56.099Z,5.28
2022-10-18T08:19:22.474Z,5.35
2022-10-18T08:21:48.800Z,5.90
2022-10-18T08:24:15.802Z,5.50
2022-10-18T08:26:42.154Z,5.75
2022-10-18T08:29:22.553Z,6.10
2022-10-18T08:31:51.491Z,6.47
2022-10-18T08:34:19.780Z,5.90
2022-10-18T08:36:46.199Z,5.70
2022-10-18T08:39:12.947Z,5.72
2022-10-18T08:41:52.351Z,7.05
2022-10-18T08:44:27.202Z,5.70
2022-10-18T08:47:03.014Z,5.95
2022-10-18T08:49:44.168Z,5.53
2022-10-18T08:52:33.835Z,5.55
2022-10-18T08:55:28.111Z,5.72
2022-10-18T08:57:57.664Z,8.20
2022-10-18T09:00:28.871Z,5.45
2022-10-18T09:03:27.589Z,5.95
2022-10-18T09:06:09.462Z,6.70
2022-10-18T09:08:48.007Z,7.40
2022-10-18T09:11:42.319Z,7.55
2022-10-18T09:14:37.203Z,7.85
2022-10-18T09:17:28.152Z,6.82
2022-10-18T09:20:13.322Z,6.93
2022-10-18T09:22:54.160Z,6.63
2022-10-18T09:25:28.295Z,5.72
2022-10-18T09:27:56.179Z,5.93
2022-10-18T09:30:37.817Z,5.93
2022-10-18T09:33:13.440Z,4.80
2022-10-18T09:35:47.731Z,5.05
2022-10-18T09:38:19.299Z,5.25
2022-10-18T09:40:58.790Z,3.78
2022-10-18T09:43:49.586Z,5.65
2022-10-18T09:46:19.816Z,4.60
2022-10-18T09:48:54.849Z,5.28
2022-10-18T09:51:29.611Z,5.60
2022-10-18T09:54:02.387Z,4.95
2022-10-18T09:56:52.015Z,5.53
2022-10-18T09:59:42.951Z,5.55
2022-10-18T10:02:16.775Z,5.80
2022-10-18T10:04:44.109Z,5.57
2022-10-18T10:07:35.215Z,5.35
2022-10-18T10:10:13.947Z,5.28
2022-10-18T10:12:41.063Z,4.90
2022-10-18T10:15:31.195Z,6.22
2022-10-18T10:18:01.682Z,6.95
2022-10-18T10:20:35.839Z,5.13
2022-10-18T10:25:38.273Z,6.18
2022-10-18T10:28:16.004Z,4.88
2022-10-18T10:30:42.971Z,5.05
2022-10-18T10:33:37.498Z,5.10
2022-10-18T10:36:19.283Z,5.10
2022-10-18T10:38:45.739Z,4.85
2022-10-18T10:41:22.425Z,4.93
2022-10-18T10:43:51.047Z,4.90
2022-10-18T10:46:20.801Z,5.07
2022-10-18T10:49:08.399Z,5.00
2022-10-18T10:51:40.913Z,4.68
2022-10-18T10:54:13.375Z,5.03
2022-10-18T10:57:03.975Z,5.95
2022-10-18T10:59:38.892Z,4.38
2022-10-18T11:02:15.183Z,4.47
2022-10-18T11:04:42.813Z,4.45
2022-10-18T11:07:15.676Z,4.70
2022-10-18T11:10:15.244Z,4.70
2022-10-18T11:12:55.689Z,4.30
2022-10-18T11:15:32.787Z,4.45
2022-10-18T11:18:28.992Z,4.68
2022-10-18T11:21:07.774Z,4.47
2022-10-18T11:23:37.009Z,4.45
2022-10-18T11:26:13.049Z,3.55
2022-10-18T11:29:06.181Z,4.78
2022-10-18T11:31:35.833Z,4.05
2022-10-18T11:34:39.831Z,4.30
2022-10-18T11:37:29.463Z,4.03
2022-10-18T11:40:17.387Z,3.55
2022-10-18T11:43:08.789Z,3.70
2022-10-18T11:45:44.405Z,3.65
2022-10-18T11:48:24.461Z,4.03
2022-10-18T11:51:14.927Z,3.25
2022-10-18T11:54:17.673Z,3.75
2022-10-18T11:57:21.712Z,3.53
2022-10-18T12:00:08.347Z,3.00
2022-10-18T12:02:56.323Z,4.00
2022-10-18T12:05:25.108Z,2.75
2022-10-18T12:07:58.653Z,3.05
2022-10-18T12:10:44.171Z,2.42
2022-10-18T12:13:25.501Z,2.42
2022-10-18T12:15:52.695Z,2.20
2022-10-18T12:18:23.951Z,2.30
2022-10-18T12:20:57.142Z,2.15
2022-10-18T12:23:26.229Z,2.23
2022-10-18T12:26:01.574Z,2.45
2022-10-18T12:28:48.919Z,3.47
2022-10-18T12:31:26.347Z,2.28
2022-10-18T12:34:00.316Z,2.90
2022-10-18T12:36:54.047Z,3.00
2022-10-18T12:39:37.583Z,3.30
2022-10-18T12:42:29.442Z,2.55
2022-10-18T12:45:07.175Z,2.58
2022-10-18T12:47:34.435Z,3.33
2022-10-18T12:50:05.074Z,2.63
2022-10-18T12:52:35.180Z,2.30
2022-10-18T12:55:06.905Z,2.47
2022-10-18T12:57:51.780Z,2.75
2022-10-18T13:00:38.314Z,2.75
2022-10-18T13:03:14.894Z,2.63
2022-10-18T13:05:55.646Z,2.17
2022-10-18T13:08:34.212Z,2.72
2022-10-18T13:11:09.725Z,2.70
2022-10-18T13:13:45.806Z,2.60
2022-10-18T13:16:24.850Z,3.00
2022-10-18T13:18:59.782Z,2.13
2022-10-18T13:21:45.921Z,2.30
2022-10-18T13:24:24.437Z,2.28
2022-10-18T13:27:24.317Z,2.78
2022-10-18T13:30:30.622Z,2.22
2022-10-18T13:33:22.173Z,2.10
2022-10-18T13:35:52.876Z,2.08
2022-10-18T13:38:37.358Z,2.30
2022-10-18T13:43:54.081Z,2.35
2022-10-18T13:46:22.749Z,3.35
2022-10-18T13:48:54.708Z,2.75
2022-10-18T13:51:46.275Z,2.47
2022-10-18T13:54:50.438Z,2.92
2022-10-18T13:57:17.322Z,2.47
2022-10-18T13:59:53.595Z,2.80
2022-10-18T14:02:36.370Z,3.25
2022-10-18T14:05:25.165Z,3.30
2022-10-18T14:07:57.924Z,2.50
2022-10-18T14:10:50.270Z,2.70
2022-10-18T14:13:24.451Z,2.88
2022-10-18T14:15:55.180Z,2.72
2022-10-18T14:18:40.602Z,2.90
2022-10-18T14:21:21.874Z,3.28
2022-10-18T14:23:50.370Z,2.90
2022-10-18T14:26:19.883Z,3.13
2022-10-18T14:29:05.573Z,3.10
2022-10-18T14:31:33.719Z,2.90
2022-10-18T14:34:00.874Z,2.90
2022-10-18T14:36:34.794Z,3.22
2022-10-18T14:39:05.235Z,3.42
2022-10-18T14:41:38.819Z,3.22
2022-10-18T14:44:14.184Z,3.00
2022-10-18T14:46:45.007Z,2.83
2022-10-18T14:49:12.821Z,2.78
2022-10-18T14:51:42.443Z,2.92
2022-10-18T14:54:18.756Z,2.97
2022-10-18T14:56:45.751Z,2.92
2022-10-18T14:59:22.192Z,3.00
2022-10-18T15:02:12.782Z,3.40
2022-10-18T15:04:39.479Z,3.05
2022-10-18T15:07:13.262Z,2.80
2022-10-18T15:09:40.428Z,3.03
2022-10-18T15:12:07.408Z,3.10
2022-10-18T15:14:34.612Z,3.10
2022-10-18T15:17:12.732Z,3.22
2022-10-18T15:19:39.481Z,2.67
2022-10-18T15:25:21.283Z,3.90
2022-10-18T15:27:54.035Z,3.03
2022-10-18T15:30:24.286Z,4.50
2022-10-18T15:32:55.532Z,3.17
2022-10-18T15:35:26.284Z,3.60
2022-10-18T15:37:54.975Z,3.03
2022-10-18T15:40:21.240Z,3.00
2022-10-18T15:42:51.207Z,3.55
2022-10-18T15:45:24.009Z,3.58
2022-10-18T15:48:01.861Z,3.20
2022-10-18T15:50:47.181Z,3.00
2022-10-18T15:53:22.794Z,3.33
2022-10-18T15:56:01.898Z,3.38
2022-10-18T15:58:44.648Z,2.65
2022-10-18T16:01:38.645Z,2.85
2022-10-18T16:04:09.944Z,3.13
2022-10-18T16:06:38.474Z,2.75
2022-10-18T16:09:05.693Z,3.60
2022-10-18T16:11:32.596Z,2.95
2022-10-18T16:14:00.522Z,2.60
2022-10-18T16:16:30.222Z,2.53
2022-10-18T16:18:57.553Z,3.08
2022-10-18T16:21:30.943Z,2.80
2022-10-18T16:23:58.684Z,3.20
2022-10-18T16:26:25.998Z,3.45
2022-10-18T16:28:53.608Z,2.95
2022-10-18T16:31:25.453Z,3.45
2022-10-18T16:33:54.752Z,3.00
2022-10-18T16:36:26.499Z,2.90
2022-10-18T16:38:54.817Z,3.00
2022-10-18T16:41:21.712Z,3.50
2022-10-18T16:43:50.025Z,3.05
2022-10-18T16:46:19.191Z,2.70
2022-10-18T16:48:46.526Z,3.03
2022-10-18T16:51:13.536Z,3.00
2022-10-18T16:53:39.998Z,2.65
2022-10-18T16:56:12.836Z,3.08
2022-10-18T16:58:39.199Z,3.25
2022-10-18T17:01:08.116Z,2.60
2022-10-18T17:03:35.452Z,2.83
2022-10-18T17:06:01.822Z,3.08
2022-10-18T17:08:28.506Z,3.13
2022-10-18T17:10:58.151Z,3.00
2022-10-18T17:13:26.182Z,3.53
2022-10-18T17:15:53.021Z,3.60
2022-10-18T17:18:22.635Z,3.17
2022-10-18T17:20:49.475Z,3.35
2022-10-18T17:23:16.119Z,3.35
2022-10-18T17:25:57.894Z,2.80
2022-10-18T17:28:33.128Z,2.63
2022-10-18T17:30:59.870Z,2.65
2022-10-18T17:33:26.253Z,3.20
2022-10-18T17:35:52.578Z,2.95
2022-10-18T17:38:19.335Z,2.90
2022-10-18T17:40:45.657Z,2.67
2022-10-18T17:43:13.511Z,3.38
2022-10-18T17:45:50.849Z,3.28
2022-10-18T17:48:17.658Z,2.78
2022-10-18T17:50:43.966Z,3.10
2022-10-18T17:53:12.231Z,2.45
2022-10-18T17:55:39.518Z,3.10
2022-10-18T17:58:05.864Z,3.20
2022-10-18T18:00:32.800Z,3.28
2022-10-18T18:03:00.266Z,2.83
2022-10-18T18:05:31.395Z,2.85
2022-10-18T18:08:02.731Z,3.28
2022-10-18T18:10:33.296Z,2.97
2022-10-18T18:13:00.193Z,3.50
2022-10-18T18:15:26.540Z,3.30
2022-10-18T18:17:57.129Z,3.20
2022-10-18T18:20:24.684Z,2.97
2022-10-18T18:22:52.134Z,3.22
2022-10-18T18:25:18.887Z,3.22
2022-10-18T18:27:45.206Z,3.20
2022-10-18T18:30:12.270Z,3.10
2022-10-18T18:32:39.098Z,2.90
2022-10-18T18:35:05.868Z,2.88
2022-10-18T18:37:32.340Z,2.92
2022-10-18T18:39:58.995Z,2.65
2022-10-18T18:42:25.380Z,2.83
2022-10-18T18:44:52.099Z,2.50
2022-10-18T18:47:21.972Z,3.00
2022-10-18T18:49:49.283Z,2.58
2022-10-18T18:52:17.036Z,2.40
2022-10-18T18:54:43.360Z,2.33
2022-10-18T18:57:10.148Z,2.72
2022-10-18T18:59:36.502Z,2.75
2022-10-18T19:02:02.842Z,2.63
2022-10-18T19:04:29.969Z,2.75
2022-10-18T19:06:56.338Z,2.95
2022-10-18T19:09:22.966Z,2.55
2022-10-18T19:11:52.895Z,2.90
2022-10-18T19:14:20.184Z,2.72
2022-10-18T19:16:48.398Z,3.00
2022-10-18T19:19:18.506Z,2.83
2022-10-18T19:21:56.533Z,2.75
2022-10-18T19:24:24.474Z,2.90
2022-10-18T19:27:02.613Z,2.88
2022-10-18T19:29:34.913Z,2.65
2022-10-18T19:32:03.618Z,2.95
2022-10-18T19:34:31.178Z,2.80
2022-10-18T19:36:57.782Z,3.13
2022-10-18T19:39:26.476Z,3.10
2022-10-18T19:41:58.269Z,3.15
2022-10-18T19:44:27.346Z,3.15
2022-10-18T19:46:55.139Z,2.85
2022-10-18T19:49:21.839Z,3.10
2022-10-18T19:51:49.368Z,3.28
2022-10-18T19:54:16.286Z,2.63
2022-10-18T19:56:43.355Z,3.10
2022-10-18T19:59:11.584Z,3.10
2022-10-18T20:01:38.531Z,2.40
2022-10-18T20:04:05.347Z,3.08
2022-10-18T20:06:32.370Z,2.67
2022-10-18T20:08:58.963Z,3.30
2022-10-18T20:11:28.002Z,2.85
2022-10-18T20:13:55.791Z,3.40
2022-10-18T20:16:28.123Z,2.72
2022-10-18T20:19:00.104Z,2.90
2022-10-18T20:21:28.176Z,2.80
2022-10-18T20:23:54.984Z,3.35
2022-10-18T20:26:22.751Z,2.72
2022-10-18T20:28:57.791Z,2.88
2022-10-18T20:31:27.706Z,3.15
2022-10-18T20:33:56.275Z,2.92
2022-10-18T20:36:22.650Z,2.97
2022-10-18T20:38:49.809Z,3.38
2022-10-18T20:41:19.848Z,3.38
2022-10-18T20:44:00.099Z,3.28
2022-10-18T20:46:29.979Z,2.90
2022-10-18T20:49:02.711Z,2.85
2022-10-18T20:51:29.142Z,2.53
2022-10-18T20:53:56.639Z,2.38
2022-10-18T20:56:26.279Z,2.65
2022-10-18T20:58:55.386Z,2.65
2022-10-18T21:01:27.218Z,3.67
2022-10-18T21:03:55.215Z,3.30
2022-10-18T21:06:26.575Z,3.20
2022-10-18T21:09:01.176Z,2.78
2022-10-18T21:11:29.755Z,3.10
2022-10-18T21:13:59.528Z,2.65
2022-10-18T21:16:27.021Z,3.10
2022-10-18T21:18:53.607Z,2.83
2022-10-18T21:21:25.418Z,2.63
2022-10-18T21:23:52.696Z,3.65
2022-10-18T21:26:21.237Z,4.22
2022-10-18T21:28:50.614Z,3.25
2022-10-18T21:31:19.634Z,3.40
2022-10-18T21:33:47.250Z,3.45
2022-10-18T21:36:14.674Z,3.40
2022-10-18T21:38:45.585Z,3.35
2022-10-18T21:41:14.912Z,3.15
2022-10-18T21:43:47.045Z,3.28
2022-10-18T21:46:15.033Z,3.30
2022-10-18T21:48:46.844Z,3.45
2022-10-18T21:51:16.174Z,3.30
2022-10-18T21:53:46.403Z,3.50
2022-10-18T21:56:15.549Z,3.60
2022-10-18T21:58:43.172Z,3.60
2022-10-18T22:01:18.146Z,3.42
2022-10-18T22:03:47.420Z,2.90
2022-10-18T22:06:15.161Z,2.95
2022-10-18T22:08:53.251Z,2.95
2022-10-18T22:11:22.929Z,2.55
2022-10-18T22:13:49.491Z,3.35
2022-10-18T22:16:16.526Z,3.13
2022-10-18T22:18:44.435Z,3.40
2022-10-18T22:21:13.322Z,3.55
2022-10-18T22:23:42.935Z,5.28
2022-10-18T22:26:12.329Z,3.40
2022-10-18T22:28:40.523Z,4.18
2022-10-18T22:31:14.196Z,3.35
2022-10-18T22:33:40.508Z,3.28
2022-10-18T22:36:06.924Z,3.63
2022-10-18T22:38:35.388Z,3.80
2022-10-18T22:41:10.399Z,3.63
2022-10-18T22:43:38.107Z,3.38
2022-10-18T22:46:07.310Z,3.30
2022-10-18T22:48:34.494Z,3.00
2022-10-18T22:51:02.200Z,3.78
2022-10-18T22:53:29.118Z,3.10
2022-10-18T22:55:55.680Z,3.03
2022-10-18T22:58:22.920Z,2.72
2022-10-18T23:00:49.630Z,2.85
2022-10-18T23:03:17.070Z,3.10
2022-10-18T23:05:46.216Z,3.33
2022-10-18T23:08:14.130Z,3.30
2022-10-18T23:10:42.302Z,3.72
2022-10-18T23:13:09.422Z,3.45
2022-10-18T23:15:36.262Z,2.90
2022-10-18T23:18:02.616Z,3.15
2022-10-18T23:20:29.290Z,3.55
2022-10-18T23:22:55.669Z,3.63
2022-10-18T23:25:22.193Z,3.17
2022-10-18T23:27:49.104Z,3.28
2022-10-18T23:30:16.595Z,2.80
2022-10-18T23:32:43.239Z,3.53
2022-10-18T23:35:10.220Z,3.35
2022-10-18T23:37:36.828Z,3.50
2022-10-18T23:40:03.762Z,4.18
2022-10-18T23:42:30.430Z,3.20
2022-10-18T23:44:56.736Z,2.90
2022-10-18T23:47:23.455Z,2.72
2022-10-18T23:49:49.826Z,3.10
2022-10-18T23:52:16.188Z,3.35
2022-10-18T23:57:14.302Z,3.42
2022-10-18T23:59:40.985Z,3.08
